Time,TemperatureF,DewpointF,PressureIn,WindDirection,WindDirectionDegrees,WindSpeedMPH,WindSpeedGustMPH,Humidity,HourlyPrecipIn,Conditions,Clouds,dailyrainin,SoftwareType,DateUTC
2013-02-04 00:04:00,23.4,18.0,30.00,ESE,110,4.0,5.0,78,0.00,,,0.00,weatherlink.com 1.10,2013-02-04 06:04:00,
2013-02-04 00:19:00,23.6,18.0,29.99,ESE,107,2.0,6.0,78,0.00,,,0.00,weatherlink.com 1.10,2013-02-04 06:19:00,
2013-02-04 00:34:00,23.9,18.0,29.98,ESE,117,2.0,4.0,78,0.00,,,0.00,weatherlink.com 1.10,2013-02-04 06:34:00,
2013-02-04 00:50:00,24.0,18.0,29.97,ESE,119,3.0,7.0,78,0.00,,,0.00,weatherlink.com 1.10,2013-02-04 06:50:00,
2013-02-04 01:05:00,24.2,18.0,29.96,SE,124,4.0,8.0,78,0.00,,,0.00,weatherlink.com 1.10,2013-02-04 07:05:00,
2013-02-04 01:20:00,24.4,18.0,29.94,SE,131,4.0,7.0,78,0.00,,,0.00,weatherlink.com 1.10,2013-02-04 07:20:00,
2013-02-04 01:35:00,24.9,19.0,29.93,SE,127,3.0,11.0,77,0.00,,,0.00,weatherlink.com 1.10,2013-02-04 07:35:00,
2013-02-04 01:50:00,25.4,19.0,29.92,ESE,117,8.0,11.0,75,0.00,,,0.00,weatherlink.com 1.10,2013-02-04 07:50:00,
2013-02-04 02:05:00,25.7,19.0,29.92,SE,139,6.0,9.0,75,0.00,,,0.00,weatherlink.com 1.10,2013-02-04 08:05:00,
2013-02-04 02:20:00,25.9,19.0,29.91,SSE,152,7.0,11.0,74,0.00,,,0.00,weatherlink.com 1.10,2013-02-04 08:20:00,
2013-02-04 02:35:00,26.1,19.0,29.90,SE,143,4.0,15.0,74,0.00,,,0.00,weatherlink.com 1.10,2013-02-04 08:35:00,
2013-02-04 02:50:00,26.3,19.0,29.89,SSE,148,6.0,11.0,74,0.00,,,0.00,weatherlink.com 1.10,2013-02-04 08:50:00,
2013-02-04 03:05:00,26.6,19.0,29.89,SE,146,4.0,12.0,74,0.00,,,0.00,weatherlink.com 1.10,2013-02-04 09:05:00,
2013-02-04 03:20:00,26.9,20.0,29.88,SSE,149,8.0,11.0,74,0.00,,,0.00,weatherlink.com 1.10,2013-02-04 09:20:00,
2013-02-04 03:35:00,27.2,20.0,29.87,SSE,165,6.0,10.0,74,0.00,,,0.00,weatherlink.com 1.10,2013-02-04 09:35:00,
2013-02-04 03:50:00,27.3,20.0,29.86,SE,146,5.0,15.0,74,0.00,,,0.00,weatherlink.com 1.10,2013-02-04 09:50:00,
2013-02-04 04:05:00,27.3,20.0,29.86,SW,217,3.0,9.0,75,0.00,,,0.00,weatherlink.com 1.10,2013-02-04 10:05:00,
2013-02-04 04:20:00,27.4,20.0,29.85,SE,137,6.0,10.0,75,0.00,,,0.00,weatherlink.com 1.10,2013-02-04 10:20:00,
2013-02-04 04:35:00,27.3,21.0,29.85,SE,142,6.0,7.0,76,0.00,,,0.00,weatherlink.com 1.10,2013-02-04 10:35:00,
2013-02-04 04:50:00,27.3,21.0,29.84,ESE,120,3.0,9.0,76,0.00,,,0.00,weatherlink.com 1.10,2013-02-04 10:50:00,
2013-02-04 05:05:00,27.3,21.0,29.84,WSW,240,3.0,10.0,77,0.00,,,0.00,weatherlink.com 1.10,2013-02-04 11:05:00,
2013-02-04 05:20:00,27.3,21.0,29.83,SE,131,3.0,9.0,78,0.00,,,0.00,weatherlink.com 1.10,2013-02-04 11:20:00,
2013-02-04 05:35:00,27.4,21.0,29.83,SE,129,3.0,7.0,78,0.00,,,0.00,weatherlink.com 1.10,2013-02-04 11:35:00,
2013-02-04 05:50:00,27.5,22.0,29.83,SSE,166,3.0,5.0,78,0.00,,,0.00,weatherlink.com 1.10,2013-02-04 11:50:00,
2013-02-04 06:05:00,27.5,22.0,29.83,SSE,159,0.0,3.0,78,0.00,,,0.00,weatherlink.com 1.10,2013-02-04 12:05:00,
2013-02-04 06:20:00,27.3,22.0,29.84,ESE,121,0.0,4.0,79,0.00,,,0.00,weatherlink.com 1.10,2013-02-04 12:20:00,
2013-02-04 06:35:00,27.3,22.0,29.83,SE,129,1.0,2.0,79,0.00,,,0.00,weatherlink.com 1.10,2013-02-04 12:35:00,
2013-02-04 06:50:00,27.5,22.0,29.83,SE,125,0.0,2.0,79,0.00,,,0.00,weatherlink.com 1.10,2013-02-04 12:50:00,
2013-02-04 07:05:00,27.5,22.0,29.82,SE,131,1.0,1.0,79,0.00,,,0.00,weatherlink.com 1.10,2013-02-04 13:05:00,
2013-02-04 07:20:00,27.5,22.0,29.82,SSE,149,0.0,2.0,79,0.00,,,0.00,weatherlink.com 1.10,2013-02-04 13:20:00,
2013-02-04 07:36:00,27.5,22.0,29.83,SW,226,0.0,0.0,79,0.00,,,0.00,weatherlink.com 1.10,2013-02-04 13:36:00,
2013-02-04 07:51:00,27.4,22.0,29.83,SW,226,0.0,0.0,79,0.00,,,0.00,weatherlink.com 1.10,2013-02-04 13:51:00,
2013-02-04 08:06:00,27.7,22.0,29.84,SW,226,0.0,0.0,80,0.00,,,0.00,weatherlink.com 1.10,2013-02-04 14:06:00,
2013-02-04 08:21:00,28.0,23.0,29.84,SW,226,0.0,0.0,81,0.00,,,0.00,weatherlink.com 1.10,2013-02-04 14:21:00,
2013-02-04 08:36:00,28.4,23.0,29.84,SW,226,0.0,0.0,80,0.00,,,0.00,weatherlink.com 1.10,2013-02-04 14:36:00,
2013-02-04 08:51:00,28.8,24.0,29.84,SW,226,0.0,0.0,81,0.00,,,0.00,weatherlink.com 1.10,2013-02-04 14:51:00,
2013-02-04 09:06:00,29.2,24.0,29.84,SW,226,0.0,0.0,81,0.00,,,0.00,weatherlink.com 1.10,2013-02-04 15:06:00,
2013-02-04 09:21:00,29.8,24.0,29.84,WNW,292,0.0,1.0,80,0.00,,,0.00,weatherlink.com 1.10,2013-02-04 15:21:00,
2013-02-04 09:36:00,30.4,25.0,29.85,WNW,296,0.0,1.0,79,0.00,,,0.00,weatherlink.com 1.10,2013-02-04 15:36:00,
2013-02-04 09:51:00,30.4,24.0,29.85,WNW,297,1.0,4.0,78,0.00,,,0.00,weatherlink.com 1.10,2013-02-04 15:51:00,
2013-02-04 10:06:00,32.5,26.0,29.85,NNW,339,1.0,3.0,78,0.00,,,0.00,weatherlink.com 1.10,2013-02-04 16:06:00,
2013-02-04 10:21:00,33.7,26.0,29.86,NNW,336,2.0,5.0,73,0.00,,,0.00,weatherlink.com 1.10,2013-02-04 16:21:00,
2013-02-04 10:36:00,34.3,26.0,29.86,North,4,2.0,4.0,72,0.00,,,0.00,weatherlink.com 1.10,2013-02-04 16:36:00,
2013-02-04 10:51:00,34.5,27.0,29.87,NNW,343,1.0,5.0,74,0.00,,,0.00,weatherlink.com 1.10,2013-02-04 16:51:00,
2013-02-04 11:06:00,34.6,27.0,29.87,NNW,346,2.0,4.0,75,0.00,,,0.00,weatherlink.com 1.10,2013-02-04 17:06:00,
2013-02-04 11:21:00,34.6,27.0,29.87,NNE,20,3.0,4.0,73,0.00,,,0.00,weatherlink.com 1.10,2013-02-04 17:21:00,
2013-02-04 11:36:00,34.5,26.0,29.88,North,8,1.0,4.0,72,0.00,,,0.00,weatherlink.com 1.10,2013-02-04 17:36:00,
2013-02-04 11:51:00,34.1,27.0,29.88,NNW,342,2.0,5.0,74,0.00,,,0.00,weatherlink.com 1.10,2013-02-04 17:51:00,
2013-02-04 12:06:00,33.3,27.0,29.87,North,360,3.0,5.0,77,0.00,,,0.00,weatherlink.com 1.10,2013-02-04 18:06:00,
2013-02-04 12:21:00,33.5,27.0,29.89,NNE,16,3.0,5.0,78,0.00,,,0.00,weatherlink.com 1.10,2013-02-04 18:21:00,
2013-02-04 12:36:00,32.1,26.0,29.91,NNE,18,3.0,5.0,78,0.00,,,0.00,weatherlink.com 1.10,2013-02-04 18:36:00,
2013-02-04 12:51:00,30.2,25.0,29.92,NNW,332,3.0,6.0,80,0.00,,,0.00,weatherlink.com 1.10,2013-02-04 18:51:00,
2013-02-04 13:06:00,28.5,24.0,29.93,North,1,3.0,6.0,83,0.00,,,0.00,weatherlink.com 1.10,2013-02-04 19:06:00,
2013-02-04 13:21:00,27.7,24.0,29.93,NNW,339,2.0,8.0,84,0.00,,,0.00,weatherlink.com 1.10,2013-02-04 19:21:00,
2013-02-04 13:36:00,27.1,23.0,29.94,North,9,1.0,5.0,85,0.00,,,0.00,weatherlink.com 1.10,2013-02-04 19:36:00,
2013-02-04 13:51:00,27.6,23.0,29.93,NNE,22,4.0,4.0,83,0.00,,,0.00,weatherlink.com 1.10,2013-02-04 19:51:00,
2013-02-04 14:06:00,27.5,23.0,29.93,NNE,19,3.0,5.0,82,0.00,,,0.00,weatherlink.com 1.10,2013-02-04 20:06:00,
2013-02-04 14:21:00,27.6,23.0,29.94,NNE,13,4.0,5.0,82,0.00,,,0.00,weatherlink.com 1.10,2013-02-04 20:21:00,
2013-02-04 14:36:00,27.7,23.0,29.93,NNE,18,3.0,6.0,82,0.00,,,0.00,weatherlink.com 1.10,2013-02-04 20:36:00,
2013-02-04 14:51:00,28.0,23.0,29.92,NNE,13,4.0,4.0,81,0.00,,,0.00,weatherlink.com 1.10,2013-02-04 20:51:00,
2013-02-04 15:06:00,28.3,23.0,29.92,NNE,25,3.0,5.0,79,0.00,,,0.00,weatherlink.com 1.10,2013-02-04 21:06:00,
2013-02-04 15:21:00,28.2,23.0,29.93,NNE,29,3.0,4.0,80,0.00,,,0.00,weatherlink.com 1.10,2013-02-04 21:21:00,
2013-02-04 15:36:00,27.4,22.0,29.93,North,6,2.0,4.0,81,0.00,,,0.00,weatherlink.com 1.10,2013-02-04 21:36:00,
2013-02-04 15:51:00,27.4,22.0,29.94,NNE,19,1.0,3.0,80,0.00,,,0.00,weatherlink.com 1.10,2013-02-04 21:51:00,
2013-02-04 16:06:00,26.7,22.0,29.94,NNE,18,2.0,4.0,81,0.00,,,0.00,weatherlink.com 1.10,2013-02-04 22:06:00,
2013-02-04 16:21:00,26.2,21.0,29.95,NNE,18,1.0,3.0,82,0.00,,,0.00,weatherlink.com 1.10,2013-02-04 22:21:00,
2013-02-04 16:36:00,25.9,21.0,29.96,North,6,2.0,3.0,82,0.00,,,0.00,weatherlink.com 1.10,2013-02-04 22:36:00,
2013-02-04 16:51:00,25.7,21.0,29.98,North,11,1.0,2.0,83,0.00,,,0.00,weatherlink.com 1.10,2013-02-04 22:51:00,
2013-02-04 17:06:00,25.5,21.0,29.98,North,8,1.0,2.0,83,0.00,,,0.00,weatherlink.com 1.10,2013-02-04 23:06:00,
2013-02-04 17:21:00,25.3,21.0,29.98,NNE,19,2.0,3.0,83,0.00,,,0.00,weatherlink.com 1.10,2013-02-04 23:21:00,
2013-02-04 17:36:00,25.2,21.0,29.99,NNE,18,0.0,1.0,83,0.00,,,0.00,weatherlink.com 1.10,2013-02-04 23:36:00,
2013-02-04 17:51:00,25.1,21.0,29.99,North,8,0.0,2.0,83,0.00,,,0.00,weatherlink.com 1.10,2013-02-04 23:51:00,
2013-02-04 18:06:00,24.9,20.0,30.00,NNE,13,0.0,2.0,83,0.00,,,0.00,weatherlink.com 1.10,2013-02-05 00:06:00,
2013-02-04 18:21:00,24.7,20.0,30.00,NNE,15,1.0,2.0,83,0.00,,,0.00,weatherlink.com 1.10,2013-02-05 00:21:00,
2013-02-04 18:36:00,23.9,20.0,29.99,NNE,15,0.0,1.0,83,0.00,,,0.00,weatherlink.com 1.10,2013-02-05 00:36:00,
2013-02-04 18:51:00,22.8,19.0,29.99,NNE,15,0.0,0.0,84,0.00,,,0.00,weatherlink.com 1.10,2013-02-05 00:51:00,
2013-02-04 19:06:00,21.8,18.0,30.00,NNE,15,0.0,0.0,86,0.00,,,0.00,weatherlink.com 1.10,2013-02-05 01:06:00,
2013-02-04 19:21:00,21.3,18.0,30.00,NNE,15,0.0,0.0,87,0.00,,,0.00,weatherlink.com 1.10,2013-02-05 01:21:00,
2013-02-04 19:36:00,21.3,18.0,30.00,NNE,15,0.0,0.0,88,0.00,,,0.00,weatherlink.com 1.10,2013-02-05 01:36:00,
2013-02-04 19:51:00,21.8,19.0,30.00,NNE,16,0.0,1.0,89,0.00,,,0.00,weatherlink.com 1.10,2013-02-05 01:51:00,
2013-02-04 20:06:00,22.1,19.0,30.00,NNE,19,0.0,1.0,88,0.00,,,0.00,weatherlink.com 1.10,2013-02-05 02:06:00,
2013-02-04 20:21:00,22.1,19.0,30.00,NNE,19,0.0,1.0,87,0.00,,,0.00,weatherlink.com 1.10,2013-02-05 02:21:00,
2013-02-04 20:36:00,22.0,19.0,30.02,NNE,12,0.0,1.0,87,0.00,,,0.00,weatherlink.com 1.10,2013-02-05 02:36:00,
2013-02-04 20:51:00,22.0,19.0,30.01,NNE,13,0.0,0.0,87,0.00,,,0.00,weatherlink.com 1.10,2013-02-05 02:51:00,
2013-02-04 21:07:00,21.8,18.0,30.00,NNE,18,0.0,1.0,86,0.00,,,0.00,weatherlink.com 1.10,2013-02-05 03:07:00,
2013-02-04 21:22:00,21.5,18.0,30.02,NNE,16,0.0,1.0,86,0.00,,,0.00,weatherlink.com 1.10,2013-02-05 03:22:00,
2013-02-04 21:37:00,20.6,17.0,30.02,NNE,16,0.0,1.0,87,0.00,,,0.00,weatherlink.com 1.10,2013-02-05 03:37:00,
2013-02-04 21:52:00,19.4,16.0,30.02,NNE,15,0.0,0.0,87,0.00,,,0.00,weatherlink.com 1.10,2013-02-05 03:52:00,
2013-02-04 22:07:00,18.6,16.0,30.01,NNE,16,0.0,0.0,88,0.00,,,0.00,weatherlink.com 1.10,2013-02-05 04:07:00,
2013-02-04 22:22:00,17.6,15.0,30.01,NNE,15,0.0,0.0,89,0.00,,,0.00,weatherlink.com 1.10,2013-02-05 04:22:00,
2013-02-04 22:37:00,17.5,15.0,30.00,NNE,16,0.0,0.0,91,0.00,,,0.00,weatherlink.com 1.10,2013-02-05 04:37:00,
2013-02-04 22:52:00,17.8,16.0,30.00,NNE,15,0.0,0.0,91,0.00,,,0.00,weatherlink.com 1.10,2013-02-05 04:52:00,
2013-02-04 23:07:00,17.7,16.0,29.99,SE,127,0.0,0.0,91,0.00,,,0.00,weatherlink.com 1.10,2013-02-05 05:07:00,
2013-02-04 23:22:00,17.3,15.0,30.00,SE,127,0.0,0.0,91,0.00,,,0.00,weatherlink.com 1.10,2013-02-05 05:22:00,
2013-02-04 23:37:00,16.6,15.0,30.00,SE,127,0.0,0.0,91,0.00,,,0.00,weatherlink.com 1.10,2013-02-05 05:37:00,
2013-02-04 23:52:00,16.8,15.0,29.99,SE,124,0.0,1.0,92,0.00,,,0.00,weatherlink.com 1.10,2013-02-05 05:52:00,